Time;durP1;ratioP1;P1;durP2;ratioP2;P2;SDS_P1;SDS_P2;PMS_P1;PMS_P2;Temp;Humidity;BMP_temperature;BMP_pressure;BME280_temperature;BME280_humidity;BME280_pressure;Samples;Min_cycle;Max_cycle;Signal;HPM_P1;HPM_P2
2022/05/09 00:01:14;;;;;;;6.20;5.60;;;;;;;12.99;92.99;100906.78;4470572;32;20488;-66
2022/05/09 00:03:42;;;;;;;5.90;5.12;;;;;;;12.95;93.52;100903.31;4470706;32;20107;-67
2022/05/09 00:06:10;;;;;;;7.75;5.45;;;;;;;12.90;93.52;100908.66;4470551;32;20546;-67
2022/05/09 00:08:43;;;;;;;5.87;5.28;;;;;;;12.85;94.57;100902.53;4470615;32;20104;-66
2022/05/09 00:11:12;;;;;;;6.57;5.87;;;;;;;12.78;94.28;100907.94;4470726;32;20080;-66
2022/05/09 00:13:41;;;;;;;8.80;6.70;;;;;;;12.73;95.21;100915.06;4470935;32;20106;-67
2022/05/09 00:16:08;;;;;;;9.82;6.22;;;;;;;12.69;96.07;100911.59;4470639;32;20128;-67
2022/05/09 00:18:36;;;;;;;9.70;6.95;;;;;;;12.66;96.41;100907.19;4470769;32;20088;-67
2022/05/09 00:21:03;;;;;;;8.23;6.15;;;;;;;12.62;96.08;100909.91;4468707;32;20119;-66
2022/05/09 00:23:30;;;;;;;6.80;6.20;;;;;;;12.64;95.68;100905.47;4470529;32;20092;-66
2022/05/09 00:25:58;;;;;;;8.88;6.40;;;;;;;12.75;94.20;100905.31;4470406;32;20554;-66
2022/05/09 00:28:26;;;;;;;7.53;6.32;;;;;;;12.71;95.42;100908.91;4470422;32;20151;-66
2022/05/09 00:30:57;;;;;;;7.35;6.57;;;;;;;12.74;94.27;100908.88;4470520;32;20493;-66
2022/05/09 00:33:24;;;;;;;8.30;6.40;;;;;;;12.76;95.45;100907.09;4470699;32;20510;-66
2022/05/09 00:35:52;;;;;;;10.35;7.43;;;;;;;12.82;93.78;100907.00;4470776;32;20165;-66
2022/05/09 00:38:20;;;;;;;9.77;7.80;;;;;;;12.91;94.89;100906.91;4470531;32;20132;-66
2022/05/09 00:43:37;;;;;;;11.43;7.40;;;;;;;12.60;96.68;100909.03;4470592;32;20081;-66
2022/05/09 00:46:05;;;;;;;8.43;7.40;;;;;;;12.64;95.69;100910.75;4470637;32;20440;-66
2022/05/09 00:48:32;;;;;;;11.00;7.62;;;;;;;12.61;96.47;100909.00;4470609;32;20152;-66
2022/05/09 00:51:01;;;;;;;12.15;7.43;;;;;;;12.61;97.40;100903.72;4470271;32;20092;-66
2022/05/09 00:53:32;;;;;;;11.77;8.35;;;;;;;12.63;96.72;100906.38;4455846;32;20429;-66
2022/05/09 00:56:05;;;;;;;10.48;8.07;;;;;;;12.61;97.68;100911.66;4470761;32;20425;-66
2022/05/09 00:58:42;;;;;;;11.70;7.47;;;;;;;12.60;96.90;100907.28;4470389;32;20396;-66
2022/05/09 01:01:13;;;;;;;8.88;7.45;;;;;;;12.62;97.03;100917.84;4470467;32;20148;-66
2022/05/09 01:03:47;;;;;;;9.32;7.32;;;;;;;12.64;96.57;100918.69;4470581;32;20500;-66
2022/05/09 01:06:14;;;;;;;9.10;7.12;;;;;;;12.70;96.75;100918.63;4470239;32;20151;-66
2022/05/09 01:08:42;;;;;;;8.85;7.03;;;;;;;12.71;97.02;100919.50;4470308;32;20112;-66
2022/05/09 01:11:18;;;;;;;11.15;7.25;;;;;;;12.79;95.67;100922.91;4470158;32;20119;-66
2022/05/09 01:13:53;;;;;;;9.05;6.75;;;;;;;12.86;95.08;100921.94;4470377;32;20326;-66
2022/05/09 01:16:21;;;;;;;14.27;7.45;;;;;;;12.99;94.34;100907.66;4470412;32;20115;-66
2022/05/09 01:18:48;;;;;;;9.70;6.97;;;;;;;13.07;93.83;100918.13;4470284;32;20518;-66
2022/05/09 01:21:36;;;;;;;9.55;5.87;;;;;;;13.02;94.08;100919.97;4470122;32;20400;-66
2022/05/09 01:24:12;;;;;;;9.43;6.60;;;;;;;12.99;93.40;100920.00;4470091;32;20436;-66
2022/05/09 01:26:39;;;;;;;9.55;6.12;;;;;;;12.90;94.41;100927.19;4470043;32;20423;-66
2022/05/09 01:29:16;;;;;;;11.05;6.75;;;;;;;12.85;94.77;100918.41;4469991;32;20092;-66
2022/05/09 01:31:45;;;;;;;8.57;6.95;;;;;;;12.79;95.06;100923.81;4470282;32;20145;-66
2022/05/09 01:34:15;;;;;;;7.40;6.22;;;;;;;12.81;95.08;100929.06;4469958;32;20591;-66
2022/05/09 01:36:48;;;;;;;7.25;5.97;;;;;;;12.88;94.84;100922.81;4469938;32;20096;-66
2022/05/09 01:39:15;;;;;;;7.10;6.35;;;;;;;12.90;94.87;100926.31;4469982;32;20100;-66
2022/05/09 01:41:48;;;;;;;9.48;6.28;;;;;;;12.84;95.25;100926.38;4469970;32;20433;-66
2022/05/09 01:44:18;;;;;;;6.65;5.90;;;;;;;12.82;95.01;100926.38;4470082;32;20077;-66
2022/05/09 01:49:34;;;;;;;;;;;;;;;12.91;94.06;100926.28;4470505;32;20194;-66
2022/05/09 01:52:05;;;;;;;9.38;6.37;;;;;;;12.85;95.75;100934.28;4469997;32;20378;-66
2022/05/09 01:54:34;;;;;;;7.43;5.95;;;;;;;12.77;96.66;100930.88;4469995;32;20133;-66
2022/05/09 01:57:02;;;;;;;7.25;6.30;;;;;;;12.72;95.24;100927.41;4469868;32;20092;-66
2022/05/09 01:59:31;;;;;;;6.07;5.40;;;;;;;12.68;96.24;100920.38;4469925;32;20436;-66
2022/05/09 02:02:08;;;;;;;9.40;6.40;;;;;;;12.66;96.27;100922.19;4469351;32;20104;-66
2022/05/09 02:04:40;;;;;;;6.97;5.70;;;;;;;12.61;97.07;100924.00;4469935;32;20068;-66
2022/05/09 02:07:14;;;;;;;8.57;6.70;;;;;;;12.56;96.79;100920.56;4469797;32;20092;-66
2022/05/09 02:09:47;;;;;;;8.13;6.65;;;;;;;12.50;97.07;100925.91;4469779;32;20100;-66
2022/05/09 02:12:17;;;;;;;8.80;7.22;;;;;;;12.46;97.69;100929.47;4469674;32;20144;-66
2022/05/09 02:14:45;;;;;;;8.68;6.37;;;;;;;12.37;98.63;100925.16;4469583;32;20096;-66
2022/05/09 02:17:13;;;;;;;8.38;6.78;;;;;;;12.35;98.47;100932.22;4469554;32;20092;-66
2022/05/09 02:19:41;;;;;;;12.98;6.53;;;;;;;12.29;98.89;100930.50;4469707;32;20105;-66
2022/05/09 02:22:09;;;;;;;11.57;7.43;;;;;;;12.24;99.77;100934.97;4469380;32;20080;-66
2022/05/09 02:24:41;;;;;;;10.98;7.35;;;;;;;12.20;100.00;100930.62;4469549;32;20091;-66
2022/05/09 02:27:09;;;;;;;8.65;6.78;;;;;;;12.14;100.00;100930.66;4469428;32;20144;-66
2022/05/09 02:29:38;;;;;;;8.25;6.55;;;;;;;12.12;99.28;100935.09;4454856;32;20133;-66
2022/05/09 02:32:06;;;;;;;10.07;6.68;;;;;;;12.06;100.00;100936.03;4469391;32;20436;-66
2022/05/09 02:34:34;;;;;;;9.63;6.87;;;;;;;12.06;99.80;100936.03;4469507;32;20534;-66
2022/05/09 02:37:01;;;;;;;7.40;6.70;;;;;;;12.07;100.00;100937.78;4454711;32;20096;-66
2022/05/09 02:39:28;;;;;;;7.05;6.05;;;;;;;12.11;100.00;100939.50;4469264;32;20088;-66
2022/05/09 02:41:57;;;;;;;6.57;5.97;;;;;;;12.14;99.60;100942.13;4469296;32;20458;-66
2022/05/09 02:44:24;;;;;;;8.40;6.97;;;;;;;12.26;98.92;100941.13;4469236;32;20116;-66
2022/05/09 02:46:51;;;;;;;10.68;6.47;;;;;;;12.31;98.10;100944.59;4469042;32;20445;-66
2022/05/09 02:49:19;;;;;;;8.07;5.72;;;;;;;12.28;98.72;100946.41;4468984;32;20101;-66
2022/05/09 02:51:49;;;;;;;9.20;6.43;;;;;;;12.28;98.57;100949.03;4469018;32;20489;-66
2022/05/09 02:54:16;;;;;;;13.80;5.93;;;;;;;12.28;98.46;100941.97;4469237;32;20127;-66
2022/05/09 02:56:44;;;;;;;11.15;4.87;;;;;;;12.42;96.65;100942.72;4468939;32;20179;-66
2022/05/09 02:59:11;;;;;;;5.68;5.05;;;;;;;12.60;93.25;100946.91;4469004;32;20130;-66
2022/05/09 03:01:38;;;;;;;5.45;4.93;;;;;;;12.81;92.08;100951.09;4469173;32;20085;-66
2022/05/09 03:06:52;;;;;;;7.53;4.43;;;;;;;12.97;90.58;100950.88;4468857;32;20551;-66
2022/05/09 03:09:20;;;;;;;5.32;4.72;;;;;;;12.95;91.15;100947.41;4468770;32;20203;-66
2022/05/09 03:11:47;;;;;;;9.80;5.43;;;;;;;12.97;90.87;100942.94;4468779;32;20546;-66
2022/05/09 03:14:14;;;;;;;6.62;5.43;;;;;;;12.97;92.22;100948.25;4468767;32;20084;-66
2022/05/09 03:16:41;;;;;;;6.50;5.28;;;;;;;12.90;92.70;100952.75;4471132;32;20197;-66
2022/05/09 03:19:08;;;;;;;6.25;5.20;;;;;;;12.88;92.85;100958.06;4470906;32;20153;-66
2022/05/09 03:21:35;;;;;;;11.40;6.50;;;;;;;12.89;91.00;100957.16;4470745;32;20433;-66
2022/05/09 03:24:03;;;;;;;7.68;6.25;;;;;;;12.79;94.29;100958.19;4470870;32;20575;-66
2022/05/09 03:26:31;;;;;;;9.13;6.62;;;;;;;12.73;95.69;100963.53;4470883;32;20120;-66
2022/05/09 03:28:58;;;;;;;7.22;6.53;;;;;;;12.72;96.48;100963.53;4470845;32;20444;-66
2022/05/09 03:31:26;;;;;;;8.30;5.62;;;;;;;12.77;95.63;100967.88;4470789;32;20160;-66
2022/05/09 03:33:53;;;;;;;8.32;6.10;;;;;;;12.81;94.74;100959.03;4470752;32;20456;-66
2022/05/09 03:36:20;;;;;;;9.90;6.40;;;;;;;12.83;94.13;100967.81;4471444;32;20101;-66
2022/05/09 03:38:47;;;;;;;7.37;5.93;;;;;;;12.88;95.77;100968.63;4470695;32;20092;-66
2022/05/09 03:41:15;;;;;;;8.38;5.97;;;;;;;12.90;95.40;100969.50;4471169;32;20092;-66
2022/05/09 03:43:42;;;;;;;9.52;7.00;;;;;;;12.94;94.42;100969.47;4471230;32;20449;-66
2022/05/09 03:46:09;;;;;;;10.55;6.53;;;;;;;12.99;95.29;100978.22;4470804;32;20472;-66
2022/05/09 03:48:37;;;;;;;7.57;5.87;;;;;;;13.01;96.03;100974.66;4470846;32;20171;-66
2022/05/09 03:51:05;;;;;;;10.98;6.35;;;;;;;13.12;95.68;100978.03;4470603;32;20485;-66
2022/05/09 03:53:33;;;;;;;7.90;5.87;;;;;;;13.29;95.53;100972.56;4470977;32;20159;-66
2022/05/09 03:56:00;;;;;;;8.43;5.70;;;;;;;13.47;93.84;100971.44;4471470;32;20089;-66
2022/05/09 03:58:27;;;;;;;10.75;6.00;;;;;;;13.57;92.11;100974.81;4471123;32;20169;-66
2022/05/09 04:00:55;;;;;;;9.02;5.55;;;;;;;13.67;92.66;100972.91;4471348;32;20080;-66
2022/05/09 04:03:22;;;;;;;9.25;6.15;;;;;;;13.74;92.78;100982.50;4471222;32;20482;-66
2022/05/09 04:05:49;;;;;;;8.13;5.82;;;;;;;13.73;92.57;100984.28;4470667;32;20096;-66
2022/05/09 04:08:20;;;;;;;8.18;6.95;;;;;;;13.80;92.28;100983.28;4471050;32;20127;-66
2022/05/09 04:10:51;;;;;;;9.85;5.57;;;;;;;13.86;92.36;100983.19;4471214;32;20088;-66
2022/05/09 04:13:18;;;;;;;9.00;6.78;;;;;;;14.00;91.02;100982.09;4471247;32;20108;-66
2022/05/09 04:18:39;;;;;;;18.40;8.13;;;;;;;14.11;92.91;100983.66;4469961;32;20156;-66
2022/05/09 04:21:08;;;;;;;9.55;7.68;;;;;;;14.14;92.90;100974.78;4457790;32;105542;-66
2022/05/09 04:23:38;;;;;;;9.20;6.37;;;;;;;14.14;92.45;100980.09;4461512;32;20757;-66
2022/05/09 04:26:05;;;;;;;8.13;7.12;;;;;;;14.22;91.53;100980.81;4461550;32;20128;-66
2022/05/09 04:28:32;;;;;;;21.58;7.95;;;;;;;14.23;92.44;100981.69;4454639;32;20127;-66
2022/05/09 04:31:00;;;;;;;14.90;9.07;;;;;;;14.22;93.52;100988.78;4446027;32;20179;-66
2022/05/09 04:33:29;;;;;;;12.37;8.10;;;;;;;14.30;93.53;100989.50;4440957;32;20743;-66
2022/05/09 04:35:58;;;;;;;12.68;7.00;;;;;;;14.41;91.83;100996.41;4455735;32;20162;-66
2022/05/09 04:38:26;;;;;;;15.38;7.43;;;;;;;14.53;90.18;100998.88;4455599;32;20200;-65
2022/05/09 04:40:54;;;;;;;21.85;7.15;;;;;;;14.63;90.19;101002.22;4455694;32;20084;-66
2022/05/09 04:43:24;;;;;;;14.00;7.32;;;;;;;14.77;89.82;101002.81;4455530;32;20100;-66
2022/05/09 04:45:52;;;;;;;13.80;7.35;;;;;;;15.00;88.81;100999.72;4455508;32;20810;-66
2022/05/09 04:48:22;;;;;;;10.32;7.37;;;;;;;15.16;87.35;101002.94;4455524;32;20193;-66
2022/05/09 04:50:49;;;;;;;12.82;7.37;;;;;;;15.19;86.69;101006.41;4457128;32;20546;-66
2022/05/09 04:53:17;;;;;;;17.00;8.25;;;;;;;15.30;84.91;101009.72;4461611;32;20085;-66
2022/05/09 04:55:45;;;;;;;24.12;6.97;;;;;;;15.51;82.52;101010.13;4469277;32;20096;-65
2022/05/09 04:58:17;;;;;;;16.52;6.97;;;;;;;15.64;83.15;101013.41;4470787;32;20108;-65
2022/05/09 05:00:45;;;;;;;12.50;7.40;;;;;;;15.66;81.84;101017.81;4468264;32;20179;-66
2022/05/09 05:03:14;;;;;;;9.88;7.30;;;;;;;15.65;81.84;101013.34;4469213;32;20079;-66
2022/05/09 05:05:44;;;;;;;14.60;7.75;;;;;;;15.75;81.04;101014.06;4470990;32;20093;-66
2022/05/09 05:08:13;;;;;;;13.40;7.25;;;;;;;15.81;80.91;101013.06;4465907;32;20109;-66
2022/05/09 05:10:41;;;;;;;27.35;7.55;;;;;;;15.91;80.36;101022.56;4455347;32;20485;-66
2022/05/09 05:13:09;;;;;;;15.98;7.57;;;;;;;15.99;79.72;101020.59;4455321;32;20120;-66
2022/05/09 05:15:36;;;;;;;31.48;7.95;;;;;;;16.19;79.52;101020.13;4455796;32;20464;-66
2022/05/09 05:18:05;;;;;;;19.40;7.37;;;;;;;16.28;78.66;101026.97;4461689;32;20096;-66
2022/05/09 05:20:32;;;;;;;18.33;7.30;;;;;;;16.16;78.83;101025.50;4467301;32;20096;-66
2022/05/09 05:23:00;;;;;;;11.15;6.53;;;;;;;16.19;78.88;101028.09;4452938;32;20084;-67
2022/05/09 05:25:28;;;;;;;11.52;7.12;;;;;;;16.19;79.09;101028.09;4454912;32;20732;-67
2022/05/09 05:27:57;;;;;;;14.87;6.70;;;;;;;16.37;78.73;101035.59;4460707;32;20097;-66
2022/05/09 05:30:24;;;;;;;32.80;7.35;;;;;;;16.41;79.28;101031.06;4461825;32;20084;-66
2022/05/09 05:32:52;;;;;;;23.40;7.22;;;;;;;16.44;80.12;101038.97;4469922;32;20165;-66
2022/05/09 05:35:23;;;;;;;33.67;8.20;;;;;;;16.46;80.27;101039.78;4469112;32;20508;-66
2022/05/09 05:37:51;;;;;;;25.25;8.50;;;;;;;16.58;80.93;101042.16;4467974;32;20119;-66
2022/05/09 05:40:19;;;;;;;23.58;7.22;;;;;;;16.69;80.67;101048.06;4468362;32;20084;-66
2022/05/09 05:42:47;;;;;;;21.48;6.90;;;;;;;16.77;79.23;101050.56;4468172;32;20440;-66
2022/05/09 05:45:21;;;;;;;13.88;6.65;;;;;;;16.86;77.84;101058.28;4467996;32;20096;-66
2022/05/09 05:47:49;;;;;;;29.37;6.62;;;;;;;16.82;76.71;101058.41;4468735;32;20455;-65
2022/05/09 05:50:19;;;;;;;27.45;7.07;;;;;;;16.81;76.84;101068.19;4469597;32;20160;-66
2022/05/09 05:52:46;;;;;;;15.90;6.62;;;;;;;16.79;76.46;101061.16;4469473;32;20085;-66
2022/05/09 05:55:14;;;;;;;21.98;6.75;;;;;;;16.77;75.79;101060.31;4462701;32;20460;-67
2022/05/09 05:57:43;;;;;;;15.10;6.53;;;;;;;16.79;75.72;101069.16;4454030;32;20101;-66
2022/05/09 06:00:14;;;;;;;10.73;6.00;;;;;;;16.89;75.40;101059.97;4454538;32;20505;-66
2022/05/09 06:02:42;;;;;;;15.88;6.28;;;;;;;17.07;74.97;101062.16;4454700;32;20110;-66
2022/05/09 06:05:11;;;;;;;27.48;7.32;;;;;;;17.10;74.81;101075.41;4453928;32;20143;-66
2022/05/09 06:07:39;;;;;;;30.90;9.77;;;;;;;17.13;75.39;101072.62;4454346;32;20120;-65
2022/05/09 06:10:10;;;;;;;11.82;7.53;;;;;;;17.27;75.67;101074.03;4459974;32;20077;-66
2022/05/09 06:12:38;;;;;;;16.70;7.32;;;;;;;17.10;76.71;101074.50;4462769;32;20206;-66
2022/05/09 06:17:53;;;;;;;14.75;7.22;;;;;;;17.22;75.31;101081.28;4468325;32;20576;-66
2022/05/09 06:20:21;;;;;;;14.57;7.95;;;;;;;17.28;74.00;101081.09;4469257;32;20695;-66
2022/05/09 06:22:48;;;;;;;16.05;7.70;;;;;;;17.26;73.76;101078.47;4469308;32;20114;-65
2022/05/09 06:25:18;;;;;;;9.32;7.00;;;;;;;17.37;73.12;101080.84;4469194;32;20108;-66
2022/05/09 06:27:46;;;;;;;21.02;8.45;;;;;;;17.56;72.29;101082.06;4469222;32;20127;-66
2022/05/09 06:30:15;;;;;;;13.00;7.07;;;;;;;17.59;73.21;101079.28;4469074;32;20183;-66
2022/05/09 06:32:43;;;;;;;14.73;7.22;;;;;;;17.71;72.18;101082.53;4469302;32;20084;-66
2022/05/09 06:35:15;;;;;;;13.25;8.40;;;;;;;17.82;71.12;101078.63;4454624;32;20100;-66
2022/05/09 06:37:42;;;;;;;18.73;8.32;;;;;;;17.80;72.45;101082.25;4469200;32;20153;-66
2022/05/09 06:40:11;;;;;;;17.15;8.18;;;;;;;17.85;72.01;101080.34;4468597;32;20133;-66
2022/05/09 06:42:39;;;;;;;24.92;9.18;;;;;;;17.87;72.05;101078.47;4468712;32;20447;-66
2022/05/09 06:45:07;;;;;;;28.38;9.75;;;;;;;17.87;71.90;101082.00;4468869;32;20661;-66
2022/05/09 06:47:45;;;;;;;16.75;7.65;;;;;;;17.93;71.76;101083.63;4469927;32;20535;-66
2022/05/09 06:50:13;;;;;;;22.45;7.53;;;;;;;18.08;71.40;101088.47;4471465;32;20513;-66
2022/05/09 06:52:42;;;;;;;12.50;7.10;;;;;;;18.23;69.88;101088.91;4471386;32;20100;-66
2022/05/09 06:55:29;;;;;;;11.18;6.87;;;;;;;18.22;70.12;101087.16;4471249;32;20162;-66
2022/05/09 06:57:57;;;;;;;9.05;6.85;;;;;;;18.25;69.41;101087.94;4468763;32;20469;-66
2022/05/09 07:00:25;;;;;;;8.30;6.20;;;;;;;18.17;68.97;101089.12;4463597;32;20488;-66
2022/05/09 07:02:53;;;;;;;21.87;6.47;;;;;;;18.24;68.84;101090.66;4471538;32;20092;-67
2022/05/09 07:05:21;;;;;;;8.85;6.62;;;;;;;18.22;68.12;101092.50;4455283;32;20173;-66
2022/05/09 07:07:49;;;;;;;13.48;6.50;;;;;;;18.31;67.43;101097.56;4469501;32;20436;-66
2022/05/09 07:10:17;;;;;;;11.30;5.55;;;;;;;18.48;68.35;101099.62;4468083;32;20123;-66
2022/05/09 07:12:50;;;;;;;8.82;5.60;;;;;;;18.61;67.01;101096.50;4469763;32;20831;-67
2022/05/09 07:15:22;;;;;;;15.73;5.68;;;;;;;18.68;66.60;101104.31;4469427;32;20085;-67
2022/05/09 07:17:54;;;;;;;12.07;6.00;;;;;;;18.52;66.05;101102.19;4469410;32;20089;-66
2022/05/09 07:20:25;;;;;;;12.00;5.68;;;;;;;18.50;66.59;101106.69;4462967;32;20201;-66
2022/05/09 07:22:55;;;;;;;8.45;5.57;;;;;;;18.56;66.88;101110.94;4453703;32;20105;-67
2022/05/09 07:25:24;;;;;;;10.32;5.90;;;;;;;18.68;66.61;101107.00;4454111;32;20155;-66
2022/05/09 07:27:51;;;;;;;10.65;5.60;;;;;;;18.86;66.43;101111.72;4451337;32;20239;-66
2022/05/09 07:30:22;;;;;;;7.05;5.62;;;;;;;18.77;65.55;101115.59;4462641;32;20487;-67
2022/05/09 07:32:52;;;;;;;9.70;5.10;;;;;;;18.93;64.20;101113.25;4461750;32;20429;-67
2022/05/09 07:35:20;;;;;;;13.95;5.60;;;;;;;19.05;64.13;101115.50;4460333;32;20150;-66
2022/05/09 07:37:47;;;;;;;13.27;5.65;;;;;;;19.27;64.15;101112.94;4462483;32;20111;-66
2022/05/09 07:40:17;;;;;;;9.27;5.50;;;;;;;19.43;63.90;101110.56;4463743;32;20127;-66
2022/05/09 07:42:47;;;;;;;22.02;6.37;;;;;;;19.66;62.76;101107.06;4457739;32;20430;-67
2022/05/09 07:45:17;;;;;;;16.10;6.65;;;;;;;19.70;63.63;101110.50;4455115;32;20158;-67
2022/05/09 07:47:46;;;;;;;17.23;6.07;;;;;;;19.91;63.69;101107.00;4455496;32;20107;-66
2022/05/09 07:50:15;;;;;;;13.00;5.15;;;;;;;20.22;61.15;101109.34;4454839;32;20127;-67
2022/05/09 07:52:45;;;;;;;20.05;5.50;;;;;;;20.28;61.67;101111.78;4455566;32;20477;-67
2022/05/09 07:55:15;;;;;;;21.10;5.07;;;;;;;20.39;59.03;101111.31;4454767;32;20108;-66
2022/05/09 07:57:43;;;;;;;7.97;4.40;;;;;;;20.58;58.72;101116.81;4455858;32;20213;-67
2022/05/09 08:00:12;;;;;;;15.77;5.00;;;;;;;20.83;58.63;101113.97;4454464;32;20168;-67
2022/05/09 08:02:49;;;;;;;20.27;5.07;;;;;;;21.03;57.58;101112.25;4467493;32;20152;-67
2022/05/09 08:05:17;;;;;;;8.57;4.93;;;;;;;21.04;57.83;101112.16;4470574;32;20546;-66
2022/05/09 08:07:44;;;;;;;10.10;4.78;;;;;;;21.39;56.68;101120.50;4470789;32;20171;-67
2022/05/09 08:10:14;;;;;;;13.02;4.45;;;;;;;21.38;55.56;101114.25;4456989;32;20464;-67
2022/05/09 08:12:43;;;;;;;8.10;3.72;;;;;;;21.85;55.73;101121.91;4470305;32;20118;-66
2022/05/09 08:15:12;;;;;;;8.57;3.42;;;;;;;22.10;52.01;101112.69;4470770;32;20122;-66
2022/05/09 08:17:41;;;;;;;28.25;3.83;;;;;;;22.44;50.40;101111.97;4470810;32;20092;-68
2022/05/09 08:20:09;;;;;;;3.20;2.90;;;;;;;22.78;51.66;101115.63;4459515;32;20089;-67
2022/05/09 08:22:36;;;;;;;7.47;2.90;;;;;;;23.09;49.03;101117.63;4454741;32;20097;-67
2022/05/09 08:25:05;;;;;;;3.50;2.83;;;;;;;22.75;47.17;101110.41;4456512;32;20108;-66
2022/05/09 08:27:34;;;;;;;2.75;2.35;;;;;;;23.19;46.79;101115.31;4468251;32;20374;-67
2022/05/09 08:30:01;;;;;;;3.03;2.60;;;;;;;23.34;46.85;101111.81;4463151;32;20123;-67
2022/05/09 08:32:28;;;;;;;4.07;3.00;;;;;;;23.75;44.11;101108.75;4463079;32;20460;-66
2022/05/09 08:34:57;;;;;;;6.40;3.25;;;;;;;23.82;44.83;101112.81;4461222;32;20160;-67
2022/05/09 08:37:27;;;;;;;4.75;3.08;;;;;;;23.65;43.68;101110.16;4468027;32;20131;-67
2022/05/09 08:39:54;;;;;;;3.10;2.67;;;;;;;23.78;45.09;101109.44;4470485;32;20077;-67
2022/05/09 08:42:40;;;;;;;7.37;3.00;;;;;;;23.89;43.32;101110.63;4454970;32;20148;-66
2022/05/09 08:45:31;;;;;;;2.70;2.50;;;;;;;24.08;43.74;101100.59;4461632;32;20119;-67
2022/05/09 08:48:16;;;;;;;9.45;3.53;;;;;;;24.04;44.18;101099.88;4460582;32;20100;-67
2022/05/09 08:51:03;;;;;;;3.45;2.87;;;;;;;23.95;43.00;101096.84;4460858;32;20477;-67
2022/05/09 08:53:38;;;;;;;8.95;2.95;;;;;;;23.88;42.51;101100.84;4461190;32;20191;-67
2022/05/09 08:56:10;;;;;;;5.32;2.92;;;;;;;23.54;42.30;101102.69;4463357;32;20092;-67
2022/05/09 08:58:59;;;;;;;4.93;3.05;;;;;;;23.22;43.90;101112.47;4455377;32;20548;-67
2022/05/09 09:01:40;;;;;;;3.72;2.95;;;;;;;23.44;41.33;101105.00;4454921;32;20427;-67
2022/05/09 09:04:30;;;;;;;4.62;3.40;;;;;;;23.59;42.47;101103.28;4454957;32;20142;-67
2022/05/09 09:07:04;;;;;;;8.05;3.28;;;;;;;24.09;41.94;101100.47;4455108;32;20421;-67
2022/05/09 09:10:03;;;;;;;3.60;3.17;;;;;;;24.40;40.64;101108.66;4453428;32;20116;-67
2022/05/09 09:12:39;;;;;;;4.28;3.03;;;;;;;24.32;39.54;101120.72;4453584;32;20119;-67
2022/05/09 09:15:28;;;;;;;;;;;;;;;23.98;39.23;101107.44;4453995;32;20776;-67
2022/05/09 09:18:11;;;;;;;20.30;3.25;;;;;;;23.94;40.86;101112.13;4453745;32;19984;-67
2022/05/09 09:20:55;;;;;;;3.08;2.87;;;;;;;24.55;39.42;101113.16;4453133;32;20436;-67
2022/05/09 09:23:43;;;;;;;4.05;3.40;;;;;;;24.71;39.01;101121.22;4453469;32;20159;-67
2022/05/09 09:26:25;;;;;;;6.85;2.92;;;;;;;24.61;38.26;101115.50;4453596;32;20488;-66
2022/05/09 09:29:04;;;;;;;3.75;3.08;;;;;;;24.91;38.47;101115.50;4453797;32;20124;-67
2022/05/09 09:31:36;;;;;;;9.60;3.28;;;;;;;25.20;38.94;101116.47;4453613;32;20101;-68
2022/05/09 09:34:30;;;;;;;4.47;3.10;;;;;;;25.38;37.96;101119.84;4454603;32;20491;-68
2022/05/09 09:37:08;;;;;;;5.25;2.60;;;;;;;25.55;39.36;101112.50;4454711;32;20537;-68
2022/05/09 09:39:35;;;;;;;13.20;4.00;;;;;;;25.86;38.60;101117.72;4454722;32;20123;-68
2022/05/09 09:42:05;;;;;;;14.75;3.30;;;;;;;26.18;38.96;101112.97;4454543;32;20156;-68
2022/05/09 09:44:38;;;;;;;11.40;3.70;;;;;;;26.90;37.19;101118.09;4454693;32;20081;-68
2022/05/09 09:47:21;;;;;;;3.45;3.20;;;;;;;27.22;35.83;101113.19;4455132;32;20676;-68
2022/05/09 09:50:24;;;;;;;3.33;2.70;;;;;;;27.26;36.51;101109.28;4454359;32;20135;-68
2022/05/09 09:52:57;;;;;;;4.30;3.20;;;;;;;26.94;36.34;101106.94;4451559;32;20175;-68
2022/05/09 09:55:30;;;;;;;3.37;2.70;;;;;;;26.72;36.03;101104.00;4454762;32;20072;-68
2022/05/09 09:58:17;;;;;;;11.55;3.03;;;;;;;26.49;36.20;101102.81;4454817;32;20164;-68
2022/05/09 10:00:45;;;;;;;;;;;;;;;26.63;35.73;101110.88;4455187;32;20096;-68
2022/05/09 10:03:27;;;;;;;4.25;2.92;;;;;;;25.94;34.19;101109.16;4454580;32;20055;-67
2022/05/09 10:05:56;;;;;;;4.60;3.40;;;;;;;26.56;34.04;101096.03;4454582;32;20132;-68
2022/05/09 10:08:35;;;;;;;3.35;3.08;;;;;;;26.82;32.73;101101.50;4454916;32;20214;-66
2022/05/09 10:11:22;;;;;;;3.95;3.20;;;;;;;26.99;32.96;101095.78;4453706;32;20097;-66
2022/05/09 10:14:17;;;;;;;10.75;3.10;;;;;;;27.58;31.70;101079.06;4454544;32;20096;-66
2022/05/09 10:16:48;;;;;;;4.30;3.03;;;;;;;27.67;32.68;101085.63;4454588;32;20081;-66
2022/05/09 10:19:29;;;;;;;4.50;3.30;;;;;;;27.23;33.09;101082.44;4454682;32;20739;-66
2022/05/09 10:25:09;;;;;;;3.42;3.03;;;;;;;27.53;33.10;101067.69;4435479;32;20165;-66
2022/05/09 10:27:38;;;;;;;5.10;3.40;;;;;;;27.90;32.42;101060.47;4454457;32;20704;-66
2022/05/09 10:30:31;;;;;;;6.68;3.53;;;;;;;27.81;31.48;101058.44;4454045;32;20815;-66
2022/05/09 10:33:25;;;;;;;3.83;3.30;;;;;;;27.13;32.55;101057.84;4447476;32;20092;-66
2022/05/09 10:35:57;;;;;;;5.40;3.28;;;;;;;26.55;33.20;101061.88;4451616;32;20184;-66
2022/05/09 10:38:49;;;;;;;11.73;3.67;;;;;;;27.52;33.47;101050.56;4454486;32;20088;-66
2022/05/09 10:41:22;;;;;;;3.90;3.20;;;;;;;28.20;32.07;101051.94;4454462;32;20756;-65
2022/05/09 10:43:58;;;;;;;4.22;3.60;;;;;;;28.34;30.82;101043.59;4456753;32;20092;-66
2022/05/09 10:46:37;;;;;;;4.03;3.50;;;;;;;28.61;31.63;101044.34;4457054;32;20175;-66
2022/05/09 10:49:12;;;;;;;3.58;3.28;;;;;;;29.15;29.41;101041.88;4456188;32;20444;-66
2022/05/09 10:51:43;;;;;;;5.37;3.40;;;;;;;28.39;29.80;101037.88;4459958;32;20100;-66
2022/05/09 10:54:22;;;;;;;6.90;3.58;;;;;;;28.11;30.78;101033.63;4461253;32;20092;-66
2022/05/09 10:57:28;;;;;;;3.83;3.50;;;;;;;28.19;30.45;101023.06;4456267;32;20096;-65
2022/05/09 11:00:22;;;;;;;4.20;3.42;;;;;;;28.24;30.83;101022.75;4402877;32;20471;-66
2022/05/09 11:03:05;;;;;;;6.35;3.78;;;;;;;29.32;30.29;101023.41;4451847;32;20159;-65
2022/05/09 11:05:47;;;;;;;11.45;3.35;;;;;;;30.15;29.76;101022.91;4452772;32;20558;-66
2022/05/09 11:08:47;;;;;;;3.67;3.15;;;;;;;30.52;29.27;101017.09;4452667;32;20662;-65
2022/05/09 11:11:24;;;;;;;7.50;3.70;;;;;;;30.66;28.52;101014.88;4446780;32;20132;-66
2022/05/09 11:14:07;;;;;;;4.28;3.35;;;;;;;28.87;31.07;101016.06;4453285;32;20088;-67
2022/05/09 11:16:54;;;;;;;3.55;3.28;;;;;;;27.96;32.21;101014.00;4453226;32;20173;-67
2022/05/09 11:19:29;;;;;;;8.57;3.35;;;;;;;27.31;33.65;101009.69;4452246;32;20152;-66
2022/05/09 11:22:10;;;;;;;6.45;3.40;;;;;;;27.26;33.57;101009.16;4453318;32;20085;-67
2022/05/09 11:24:59;;;;;;;12.02;3.58;;;;;;;27.57;33.39;101002.41;4442876;32;20084;-67
2022/05/09 11:27:51;;;;;;;6.82;3.40;;;;;;;27.38;33.74;101004.69;4458303;32;20411;-67
2022/05/09 11:30:24;;;;;;;4.57;3.22;;;;;;;27.28;33.71;101009.03;4461866;32;20108;-67
2022/05/09 11:33:17;;;;;;;6.28;3.30;;;;;;;27.22;33.70;101013.06;4467616;32;20141;-67
2022/05/09 11:35:48;;;;;;;4.50;3.50;;;;;;;26.74;34.71;100998.44;4468409;32;20200;-67
2022/05/09 11:38:27;;;;;;;9.68;3.80;;;;;;;26.58;35.33;100996.81;4469953;32;20160;-67
2022/05/09 11:41:14;;;;;;;18.52;3.42;;;;;;;26.52;35.09;100991.81;4469296;32;20453;-67
2022/05/09 11:44:06;;;;;;;7.00;3.20;;;;;;;26.29;35.64;100992.47;4468856;32;20111;-67
2022/05/09 11:47:09;;;;;;;5.07;3.35;;;;;;;26.12;34.96;100988.25;4470214;32;20529;-67
2022/05/09 11:49:38;;;;;;;3.80;3.25;;;;;;;25.85;36.46;100996.34;4405524;32;20458;-66
2022/05/09 11:52:29;;;;;;;6.50;3.20;;;;;;;26.08;36.00;100984.88;4446758;32;20104;-66
2022/05/09 11:55:19;;;;;;;5.43;3.42;;;;;;;26.03;37.30;100988.84;4464756;32;20391;-66
2022/05/09 11:57:53;;;;;;;4.00;3.00;;;;;;;26.11;36.07;100981.94;4471276;32;20072;-66
2022/05/09 12:00:43;;;;;;;5.55;3.90;;;;;;;26.33;34.89;100986.78;4471307;32;20514;-66
2022/05/09 12:03:11;;;;;;;4.72;3.15;;;;;;;26.36;34.22;100996.50;4458274;32;20436;-66